Time;durP1;ratioP1;P1;durP2;ratioP2;P2;SDS_P1;SDS_P2;PMS_P1;PMS_P2;Temp;Humidity;BMP_temperature;BMP_pressure;BME280_temperature;BME280_humidity;BME280_pressure;Samples;Min_cycle;Max_cycle;Signal;HPM_P1;HPM_P2
2021/10/04 00:01:21;;;;;;;;;;;;;;;;;;5046410;28;20015;-65
2021/10/04 00:03:47;;;;;;;;;;;;;;;;;;5046334;28;19912;-66
2021/10/04 00:06:13;;;;;;;;;;;;;;;;;;5046265;28;19909;-66
2021/10/04 00:08:39;;;;;;;;;;;;;;;;;;5046277;28;19968;-65
2021/10/04 00:11:05;;;;;;;;;;;;;;;;;;5046285;28;19906;-66
2021/10/04 00:13:31;;;;;;;;;;;;;;;;;;5046019;28;19905;-65
2021/10/04 00:15:58;;;;;;;;;;;;;;;;;;5045534;28;19935;-68
2021/10/04 00:18:24;;;;;;;;;;;;;;;;;;5045714;28;19905;-65
2021/10/04 00:20:50;;;;;;;;;;;;;;;;;;5045032;28;19912;-66
2021/10/04 00:23:15;;;;;;;;;;;;;;;;;;5045843;28;20399;-65
2021/10/04 00:25:41;;;;;;;;;;;;;;;;;;5046061;28;19912;-67
2021/10/04 00:28:07;;;;;;;;;;;;;;;;;;5045390;28;19905;-65
2021/10/04 00:30:33;;;;;;;;;;;;;;;;;;5045277;28;19905;-65
2021/10/04 00:32:59;;;;;;;;;;;;;;;;;;5045007;28;19931;-71
2021/10/04 00:35:25;;;;;;;;;;;;;;;;;;5045390;28;19955;-66
2021/10/04 00:37:51;;;;;;;;;;;;;;;;;;5045612;28;19916;-69
2021/10/04 00:40:17;;;;;;;;;;;;;;;;;;5045618;28;19905;-67
2021/10/04 00:42:43;;;;;;;;;;;;;;;;;;5048203;28;19905;-67
2021/10/04 00:45:09;;;;;;;;;;;;;;;;;;5049607;28;19909;-66
2021/10/04 00:47:35;;;;;;;;;;;;;;;;;;5049390;28;19905;-65
2021/10/04 00:50:01;;;;;;;;;;;;;;;;;;5049695;28;19972;-67
2021/10/04 00:52:27;;;;;;;;;;;;;;;;;;5049167;28;19905;-66
2021/10/04 00:54:53;;;;;;;;;;;;;;;;;;5048045;28;19909;-65
2021/10/04 00:57:19;;;;;;;;;;;;;;;;;;5049366;28;19909;-65
2021/10/04 00:59:45;;;;;;;;;;;;;;;;;;5049513;28;20363;-65
2021/10/04 01:02:11;;;;;;;;;;;;;;;;;;5049475;28;19931;-65
2021/10/04 01:04:37;;;;;;;;;;;;;;;;;;5049508;28;19928;-67
2021/10/04 01:07:03;;;;;;;;;;;;;;;;;;5049516;28;19912;-65
2021/10/04 01:09:28;;;;;;;;;;;;;;;;;;5049389;28;19905;-65
2021/10/04 01:11:54;;;;;;;;;;;;;;;;;;5049350;28;19963;-65
2021/10/04 01:14:20;;;;;;;;;;;;;;;;;;5049089;28;19916;-65
2021/10/04 01:16:46;;;;;;;;;;;;;;;;;;5049092;28;19905;-65
2021/10/04 01:19:12;;;;;;;;;;;;;;;;;;5049046;28;19928;-65
2021/10/04 01:21:38;;;;;;;;;;;;;;;;;;5049052;28;19974;-68
2021/10/04 01:24:04;;;;;;;;;;;;;;;;;;5048809;28;19905;-65
2021/10/04 01:26:30;;;;;;;;;;;;;;;;;;5048860;28;20368;-65
2021/10/04 01:28:56;;;;;;;;;;;;;;;;;;5048820;28;19912;-65
2021/10/04 01:31:22;;;;;;;;;;;;;;;;;;5048855;28;20348;-65
2021/10/04 01:33:48;;;;;;;;;;;;;;;;;;5048823;28;19988;-67
2021/10/04 01:36:14;;;;;;;;;;;;;;;;;;5048883;28;19914;-70
2021/10/04 01:38:40;;;;;;;;;;;;;;;;;;5048905;28;19905;-65
2021/10/04 01:41:06;;;;;;;;;;;;;;;;;;5048504;28;19972;-66
2021/10/04 01:43:32;;;;;;;;;;;;;;;;;;5048418;28;20252;-65
2021/10/04 01:45:58;;;;;;;;;;;;;;;;;;5048435;28;19905;-65
2021/10/04 01:48:24;;;;;;;;;;;;;;;;;;5048072;28;19912;-66
2021/10/04 01:50:50;;;;;;;;;;;;;;;;;;5047111;28;19905;-67
2021/10/04 01:53:16;;;;;;;;;;;;;;;;;;5047425;28;19905;-65
2021/10/04 01:55:41;;;;;;;;;;;;;;;;;;5048061;28;19909;-71
2021/10/04 01:58:07;;;;;;;;;;;;;;;;;;5047846;28;19959;-69
2021/10/04 02:00:33;;;;;;;;;;;;;;;;;;5048051;28;19905;-66
2021/10/04 02:02:59;;;;;;;;;;;;;;;;;;5048274;28;20086;-65
2021/10/04 02:05:25;;;;;;;;;;;;;;;;;;5048218;28;19980;-65
2021/10/04 02:07:51;;;;;;;;;;;;;;;;;;5048317;28;19905;-65
2021/10/04 02:10:17;;;;;;;;;;;;;;;;;;5048043;28;19905;-66
2021/10/04 02:12:43;;;;;;;;;;;;;;;;;;5048061;28;19905;-69
2021/10/04 02:15:09;;;;;;;;;;;;;;;;;;5047827;28;19963;-65
2021/10/04 02:17:35;;;;;;;;;;;;;;;;;;5047610;28;19916;-67
2021/10/04 02:20:01;;;;;;;;;;;;;;;;;;5047472;28;19905;-67
2021/10/04 02:22:27;;;;;;;;;;;;;;;;;;5047169;28;19972;-71
2021/10/04 02:24:53;;;;;;;;;;;;;;;;;;5047596;28;19905;-66
2021/10/04 02:27:19;;;;;;;;;;;;;;;;;;5047715;28;19905;-66
2021/10/04 02:29:44;;;;;;;;;;;;;;;;;;5047781;28;19906;-65
2021/10/04 02:32:10;;;;;;;;;;;;;;;;;;5047733;28;19947;-65
2021/10/04 02:34:36;;;;;;;;;;;;;;;;;;5047563;28;19935;-66
2021/10/04 02:37:02;;;;;;;;;;;;;;;;;;5047438;28;19905;-68
2021/10/04 02:39:28;;;;;;;;;;;;;;;;;;5047332;28;19905;-66
2021/10/04 02:41:54;;;;;;;;;;;;;;;;;;5046875;28;19909;-70
2021/10/04 02:44:20;;;;;;;;;;;;;;;;;;5047065;28;19928;-65
2021/10/04 02:46:46;;;;;;;;;;;;;;;;;;5047362;28;19905;-65
2021/10/04 02:49:12;;;;;;;;;;;;;;;;;;5047431;28;19948;-65
2021/10/04 02:51:38;;;;;;;;;;;;;;;;;;5047055;28;19928;-66
2021/10/04 02:54:04;;;;;;;;;;;;;;;;;;5045390;28;20371;-66
2021/10/04 02:56:30;;;;;;;;;;;;;;;;;;5047052;28;19909;-69
2021/10/04 02:58:55;;;;;;;;;;;;;;;;;;5046614;28;19905;-67
2021/10/04 03:01:21;;;;;;;;;;;;;;;;;;5046942;28;19951;-65
2021/10/04 03:03:47;;;;;;;;;;;;;;;;;;5046758;28;20368;-69
2021/10/04 03:06:13;;;;;;;;;;;;;;;;;;5046968;28;19908;-68
2021/10/04 03:08:39;;;;;;;;;;;;;;;;;;5047230;28;19931;-69
2021/10/04 03:11:05;;;;;;;;;;;;;;;;;;5046692;28;19905;-65
2021/10/04 03:13:31;;;;;;;;;;;;;;;;;;5047218;28;19928;-65
2021/10/04 03:15:57;;;;;;;;;;;;;;;;;;5046932;28;19909;-65
2021/10/04 03:18:23;;;;;;;;;;;;;;;;;;5046745;28;19927;-65
2021/10/04 03:20:49;;;;;;;;;;;;;;;;;;5046822;28;19909;-65
2021/10/04 03:23:15;;;;;;;;;;;;;;;;;;5045685;28;19927;-65
2021/10/04 03:25:41;;;;;;;;;;;;;;;;;;5046976;28;19951;-66
2021/10/04 03:28:06;;;;;;;;;;;;;;;;;;5046894;28;20445;-66
2021/10/04 03:30:33;;;;;;;;;;;;;;;;;;5046534;28;19909;-66
2021/10/04 03:32:59;;;;;;;;;;;;;;;;;;5046102;28;20394;-66
2021/10/04 03:35:25;;;;;;;;;;;;;;;;;;5046495;28;19909;-65
2021/10/04 03:37:51;;;;;;;;;;;;;;;;;;5045275;28;19905;-65
2021/10/04 03:40:17;;;;;;;;;;;;;;;;;;5046454;28;19912;-69
2021/10/04 03:42:43;;;;;;;;;;;;;;;;;;5046721;28;19905;-69
2021/10/04 03:45:09;;;;;;;;;;;;;;;;;;5046681;28;20015;-65
2021/10/04 03:47:35;;;;;;;;;;;;;;;;;;5047810;28;19905;-66
2021/10/04 03:50:01;;;;;;;;;;;;;;;;;;5047825;28;19972;-66
2021/10/04 03:52:27;;;;;;;;;;;;;;;;;;5047858;28;19909;-65
2021/10/04 03:54:53;;;;;;;;;;;;;;;;;;5047653;28;19936;-65
2021/10/04 03:57:19;;;;;;;;;;;;;;;;;;5046941;28;19931;-66
2021/10/04 03:59:45;;;;;;;;;;;;;;;;;;5046760;28;19905;-65
2021/10/04 04:02:12;;;;;;;;;;;;;;;;;;5046373;28;19927;-66
2021/10/04 04:04:38;;;;;;;;;;;;;;;;;;5046759;28;19912;-65
2021/10/04 04:07:04;;;;;;;;;;;;;;;;;;5046498;28;19978;-65
2021/10/04 04:09:29;;;;;;;;;;;;;;;;;;5046843;28;19909;-65
2021/10/04 04:11:55;;;;;;;;;;;;;;;;;;5046625;28;19909;-66
2021/10/04 04:14:22;;;;;;;;;;;;;;;;;;5046364;28;19980;-67
2021/10/04 04:16:48;;;;;;;;;;;;;;;;;;5047994;28;19988;-65
2021/10/04 04:19:14;;;;;;;;;;;;;;;;;;5050519;28;20382;-65
2021/10/04 04:21:42;;;;;;;;;;;;;;;;;;5050390;28;19916;-65
2021/10/04 04:24:08;;;;;;;;;;;;;;;;;;5050081;28;19905;-65
2021/10/04 04:26:34;;;;;;;;;;;;;;;;;;5050047;28;19912;-66
2021/10/04 04:29:00;;;;;;;;;;;;;;;;;;5048823;28;19909;-65
2021/10/04 04:31:25;;;;;;;;;;;;;;;;;;5050176;28;19905;-65
2021/10/04 04:33:52;;;;;;;;;;;;;;;;;;5050008;28;20276;-68
2021/10/04 04:36:18;;;;;;;;;;;;;;;;;;5050190;28;19959;-65
2021/10/04 04:38:44;;;;;;;;;;;;;;;;;;5048794;28;20355;-65
2021/10/04 04:41:10;;;;;;;;;;;;;;;;;;5049986;28;19912;-65
2021/10/04 04:43:37;;;;;;;;;;;;;;;;;;5049862;28;19980;-65
2021/10/04 04:46:03;;;;;;;;;;;;;;;;;;5049958;28;19957;-65
2021/10/04 04:48:29;;;;;;;;;;;;;;;;;;5049663;28;19913;-65
2021/10/04 04:50:54;;;;;;;;;;;;;;;;;;5050045;28;19912;-66
2021/10/04 04:53:20;;;;;;;;;;;;;;;;;;5049674;28;19905;-65
2021/10/04 04:55:46;;;;;;;;;;;;;;;;;;5049814;28;20000;-65
2021/10/04 04:58:12;;;;;;;;;;;;;;;;;;5049707;28;19928;-65
2021/10/04 05:00:38;;;;;;;;;;;;;;;;;;5049671;28;19905;-65
2021/10/04 05:03:07;;;;;;;;;;;;;;;;;;5049508;28;20351;-65
2021/10/04 05:05:33;;;;;;;;;;;;;;;;;;5050185;28;20336;-68
2021/10/04 05:07:59;;;;;;;;;;;;;;;;;;5048926;28;19909;-67
2021/10/04 05:10:25;;;;;;;;;;;;;;;;;;5049714;28;19912;-65
2021/10/04 05:12:51;;;;;;;;;;;;;;;;;;5049278;28;19940;-65
2021/10/04 05:15:17;;;;;;;;;;;;;;;;;;5048075;28;19909;-65
2021/10/04 05:17:43;;;;;;;;;;;;;;;;;;5048988;28;19955;-65
2021/10/04 05:20:09;;;;;;;;;;;;;;;;;;5049056;28;19915;-65
2021/10/04 05:22:38;;;;;;;;;;;;;;;;;;5048753;28;19912;-66
2021/10/04 05:25:03;;;;;;;;;;;;;;;;;;5049040;28;19905;-67
2021/10/04 05:27:29;;;;;;;;;;;;;;;;;;5048119;28;20030;-65
2021/10/04 05:29:55;;;;;;;;;;;;;;;;;;5048085;28;19905;-65
2021/10/04 05:32:21;;;;;;;;;;;;;;;;;;5048967;28;19905;-66
2021/10/04 05:34:47;;;;;;;;;;;;;;;;;;5048310;28;19967;-65
2021/10/04 05:37:13;;;;;;;;;;;;;;;;;;5048285;28;19909;-70
2021/10/04 05:39:39;;;;;;;;;;;;;;;;;;5048684;28;19909;-65
2021/10/04 05:42:05;;;;;;;;;;;;;;;;;;5048114;28;19905;-66
2021/10/04 05:44:31;;;;;;;;;;;;;;;;;;5048722;28;19994;-67
2021/10/04 05:46:57;;;;;;;;;;;;;;;;;;5048687;28;19905;-67
2021/10/04 05:49:23;;;;;;;;;;;;;;;;;;5047382;28;19905;-65
2021/10/04 05:51:49;;;;;;;;;;;;;;;;;;5048678;28;19972;-65
2021/10/04 05:54:15;;;;;;;;;;;;;;;;;;5048630;28;19916;-65
2021/10/04 05:56:40;;;;;;;;;;;;;;;;;;5048434;28;19905;-65
2021/10/04 05:59:06;;;;;;;;;;;;;;;;;;5048689;28;19905;-65
2021/10/04 06:01:32;;;;;;;;;;;;;;;;;;5048451;28;19905;-67
2021/10/04 06:03:58;;;;;;;;;;;;;;;;;;5048372;28;19996;-65
2021/10/04 06:06:24;;;;;;;;;;;;;;;;;;5048380;28;19905;-65
2021/10/04 06:08:50;;;;;;;;;;;;;;;;;;5048410;28;20314;-65
2021/10/04 06:11:16;;;;;;;;;;;;;;;;;;5048368;28;19912;-65
2021/10/04 06:13:42;;;;;;;;;;;;;;;;;;5047109;28;19905;-65
2021/10/04 06:16:08;;;;;;;;;;;;;;;;;;5048043;28;19909;-65
2021/10/04 06:18:34;;;;;;;;;;;;;;;;;;5048281;28;19955;-68
2021/10/04 06:21:00;;;;;;;;;;;;;;;;;;5046779;28;19935;-65
2021/10/04 06:23:28;;;;;;;;;;;;;;;;;;5047900;28;20007;-65
2021/10/04 06:25:54;;;;;;;;;;;;;;;;;;5048014;28;19904;-67
2021/10/04 06:28:20;;;;;;;;;;;;;;;;;;5046314;28;19923;-65
2021/10/04 06:30:46;;;;;;;;;;;;;;;;;;5047872;28;19929;-65
2021/10/04 06:33:12;;;;;;;;;;;;;;;;;;5047834;28;19952;-65
2021/10/04 06:35:38;;;;;;;;;;;;;;;;;;5047893;28;19913;-65
2021/10/04 06:38:04;;;;;;;;;;;;;;;;;;5047886;28;20338;-65
2021/10/04 06:40:30;;;;;;;;;;;;;;;;;;5047471;28;19904;-65
2021/10/04 06:42:56;;;;;;;;;;;;;;;;;;5039499;28;19912;-69
2021/10/04 06:45:23;;;;;;;;;;;;;;;;;;5045982;28;19909;-65
2021/10/04 06:47:49;;;;;;;;;;;;;;;;;;5047408;28;19952;-67
2021/10/04 06:50:15;;;;;;;;;;;;;;;;;;5047025;28;19905;-69
2021/10/04 06:52:40;;;;;;;;;;;;;;;;;;5046569;28;19905;-67
2021/10/04 06:55:06;;;;;;;;;;;;;;;;;;5045374;28;20008;-65
2021/10/04 06:57:32;;;;;;;;;;;;;;;;;;5042775;28;19912;-65
2021/10/04 06:59:58;;;;;;;;;;;;;;;;;;5038328;28;19912;-66
2021/10/04 07:02:24;;;;;;;;;;;;;;;;;;5047110;28;19905;-67
2021/10/04 07:04:50;;;;;;;;;;;;;;;;;;5047189;28;19935;-65
2021/10/04 07:07:16;;;;;;;;;;;;;;;;;;5047091;28;20350;-65
2021/10/04 07:09:42;;;;;;;;;;;;;;;;;;5047297;28;19904;-65
2021/10/04 07:12:08;;;;;;;;;;;;;;;;;;5047161;28;19959;-65
2021/10/04 07:14:34;;;;;;;;;;;;;;;;;;5047035;28;19958;-65
2021/10/04 07:17:00;;;;;;;;;;;;;;;;;;5034281;28;19935;-64
2021/10/04 07:19:26;;;;;;;;;;;;;;;;;;5027145;28;19928;-65
2021/10/04 07:21:52;;;;;;;;;;;;;;;;;;5027060;28;19990;-65
2021/10/04 07:24:18;;;;;;;;;;;;;;;;;;5027280;28;19912;-65
2021/10/04 07:26:44;;;;;;;;;;;;;;;;;;5027233;28;19905;-65
2021/10/04 07:29:10;;;;;;;;;;;;;;;;;;5027150;28;19924;-67
2021/10/04 07:31:36;;;;;;;;;;;;;;;;;;5025895;28;19912;-65
2021/10/04 07:34:01;;;;;;;;;;;;;;;;;;5027186;28;19912;-65
2021/10/04 07:36:27;;;;;;;;;;;;;;;;;;5027074;28;19905;-66
2021/10/04 07:38:53;;;;;;;;;;;;;;;;;;5027203;28;19941;-66
2021/10/04 07:41:19;;;;;;;;;;;;;;;;;;5026466;28;19909;-65
2021/10/04 07:43:45;;;;;;;;;;;;;;;;;;5046210;28;19921;-64
2021/10/04 07:46:11;;;;;;;;;;;;;;;;;;5046488;28;19909;-64
2021/10/04 07:48:37;;;;;;;;;;;;;;;;;;5031452;28;20382;-64
2021/10/04 07:51:03;;;;;;;;;;;;;;;;;;5026957;28;19910;-65
2021/10/04 07:53:31;;;;;;;;;;;;;;;;;;5031160;28;19909;-68
2021/10/04 07:55:57;;;;;;;;;;;;;;;;;;5030822;28;19959;-64
2021/10/04 07:58:23;;;;;;;;;;;;;;;;;;5030806;28;19909;-65
2021/10/04 08:00:49;;;;;;;;;;;;;;;;;;5030839;28;19920;-65
2021/10/04 08:03:15;;;;;;;;;;;;;;;;;;5030753;28;19961;-64
2021/10/04 08:05:41;;;;;;;;;;;;;;;;;;5030956;28;19920;-65
2021/10/04 08:08:07;;;;;;;;;;;;;;;;;;5030847;28;19906;-66
2021/10/04 08:10:33;;;;;;;;;;;;;;;;;;5029727;28;19912;-71
2021/10/04 08:12:59;;;;;;;;;;;;;;;;;;5029140;28;19912;-67
2021/10/04 08:15:25;;;;;;;;;;;;;;;;;;5040247;28;19963;-65
2021/10/04 08:17:51;;;;;;;;;;;;;;;;;;5050332;28;19904;-66
2021/10/04 08:20:17;;;;;;;;;;;;;;;;;;5049971;28;19905;-67
2021/10/04 08:22:43;;;;;;;;;;;;;;;;;;5048856;28;19912;-67
2021/10/04 08:25:09;;;;;;;;;;;;;;;;;;5050694;28;19917;-66
2021/10/04 08:27:35;;;;;;;;;;;;;;;;;;5050159;28;19959;-65
2021/10/04 08:30:01;;;;;;;;;;;;;;;;;;5050030;28;19905;-66
2021/10/04 08:32:27;;;;;;;;;;;;;;;;;;5048887;28;19905;-65
2021/10/04 08:34:53;;;;;;;;;;;;;;;;;;5049912;28;19959;-65
2021/10/04 08:37:19;;;;;;;;;;;;;;;;;;5049775;28;19909;-66
2021/10/04 08:39:45;;;;;;;;;;;;;;;;;;5049651;28;19937;-65
2021/10/04 08:42:11;;;;;;;;;;;;;;;;;;5049817;28;19912;-66
2021/10/04 08:44:37;;;;;;;;;;;;;;;;;;5049627;28;19917;-66
2021/10/04 08:47:03;;;;;;;;;;;;;;;;;;5049610;28;19905;-66
2021/10/04 08:49:33;;;;;;;;;;;;;;;;;;5049435;28;19905;-66
2021/10/04 08:51:59;;;;;;;;;;;;;;;;;;5049639;28;20004;-66
2021/10/04 08:54:25;;;;;;;;;;;;;;;;;;5049022;28;19995;-66
2021/10/04 08:56:52;;;;;;;;;;;;;;;;;;5049279;28;19969;-66
2021/10/04 08:59:17;;;;;;;;;;;;;;;;;;5049362;28;19928;-69
2021/10/04 09:01:43;;;;;;;;;;;;;;;;;;5049312;28;19908;-66
2021/10/04 09:04:09;;;;;;;;;;;;;;;;;;5049322;28;19912;-65
2021/10/04 09:06:35;;;;;;;;;;;;;;;;;;5049372;28;20008;-65
2021/10/04 09:09:04;;;;;;;;;;;;;;;;;;5049316;28;19905;-67
2021/10/04 09:11:30;;;;;;;;;;;;;;;;;;5048939;28;19905;-65
2021/10/04 09:13:56;;;;;;;;;;;;;;;;;;5049298;28;19905;-68
2021/10/04 09:16:22;;;;;;;;;;;;;;;;;;5049419;28;19905;-66
2021/10/04 09:18:48;;;;;;;;;;;;;;;;;;5049160;28;19940;-66
2021/10/04 09:21:15;;;;;;;;;;;;;;;;;;5049037;28;19906;-65
2021/10/04 09:23:48;;;;;;;;;;;;;;;;;;5049185;28;19905;-65
2021/10/04 09:26:14;;;;;;;;;;;;;;;;;;5049279;28;19948;-65
2021/10/04 09:28:42;;;;;;;;;;;;;;;;;;5048746;28;19916;-65
2021/10/04 09:31:08;;;;;;;;;;;;;;;;;;5048945;28;19905;-66
2021/10/04 09:33:33;;;;;;;;;;;;;;;;;;5048700;28;19905;-70
2021/10/04 09:35:59;;;;;;;;;;;;;;;;;;5048796;28;19913;-66
2021/10/04 09:38:25;;;;;;;;;;;;;;;;;;5048560;28;19941;-66
2021/10/04 09:40:51;;;;;;;;;;;;;;;;;;5048654;28;19905;-65
2021/10/04 09:43:17;;;;;;;;;;;;;;;;;;5048393;28;19913;-65
2021/10/04 09:45:43;;;;;;;;;;;;;;;;;;5048394;28;19905;-69
2021/10/04 09:48:09;;;;;;;;;;;;;;;;;;5048423;28;19980;-67
2021/10/04 09:50:35;;;;;;;;;;;;;;;;;;5048523;28;19905;-66
2021/10/04 09:53:01;;;;;;;;;;;;;;;;;;5048408;28;19905;-66
2021/10/04 09:55:27;;;;;;;;;;;;;;;;;;5048290;28;19990;-65
2021/10/04 09:57:53;;;;;;;;;;;;;;;;;;5048719;28;19944;-69
2021/10/04 10:00:19;;;;;;;;;;;;;;;;;;5048280;28;19905;-66
2021/10/04 10:02:45;;;;;;;;;;;;;;;;;;5048005;28;19913;-69
2021/10/04 10:05:11;;;;;;;;;;;;;;;;;;5048175;28;19964;-66
2021/10/04 10:07:37;;;;;;;;;;;;;;;;;;5048191;28;19905;-67
2021/10/04 10:10:03;;;;;;;;;;;;;;;;;;5048179;28;19926;-65
2021/10/04 10:12:29;;;;;;;;;;;;;;;;;;5048090;28;20390;-66
2021/10/04 10:14:55;;;;;;;;;;;;;;;;;;5047351;28;19935;-65
2021/10/04 10:17:21;;;;;;;;;;;;;;;;;;5047958;28;19905;-73
2021/10/04 10:19:47;;;;;;;;;;;;;;;;;;5047789;28;19912;-65
2021/10/04 10:22:13;;;;;;;;;;;;;;;;;;5048226;28;20015;-65
2021/10/04 10:24:39;;;;;;;;;;;;;;;;;;5047658;28;19905;-67
2021/10/04 10:27:05;;;;;;;;;;;;;;;;;;5047799;28;19912;-70
2021/10/04 10:29:31;;;;;;;;;;;;;;;;;;5047779;28;19905;-65
2021/10/04 10:31:57;;;;;;;;;;;;;;;;;;5047956;28;19905;-65
2021/10/04 10:34:22;;;;;;;;;;;;;;;;;;5047493;28;19909;-66
2021/10/04 10:36:48;;;;;;;;;;;;;;;;;;5047563;28;19912;-66
2021/10/04 10:39:15;;;;;;;;;;;;;;;;;;5047508;28;19940;-65
2021/10/04 10:41:41;;;;;;;;;;;;;;;;;;5047491;28;19905;-65
2021/10/04 10:44:06;;;;;;;;;;;;;;;;;;5047419;28;19967;-65
2021/10/04 10:46:32;;;;;;;;;;;;;;;;;;5047414;28;19905;-71
2021/10/04 10:49:03;;;;;;;;;;;;;;;;;;5047469;28;19917;-65
2021/10/04 10:51:29;;;;;;;;;;;;;;;;;;5047610;28;19951;-66
2021/10/04 10:53:55;;;;;;;;;;;;;;;;;;5047200;28;20330;-67
2021/10/04 10:56:21;;;;;;;;;;;;;;;;;;5047270;28;19955;-65
2021/10/04 10:58:46;;;;;;;;;;;;;;;;;;5047072;28;19905;-67
2021/10/04 11:01:16;;;;;;;;;;;;;;;;;;5047136;28;19905;-65
2021/10/04 11:03:42;;;;;;;;;;;;;;;;;;5046990;28;19972;-67
2021/10/04 11:06:08;;;;;;;;;;;;;;;;;;5045750;28;19909;-66
2021/10/04 11:08:34;;;;;;;;;;;;;;;;;;5047171;28;19905;-66
2021/10/04 11:11:00;;;;;;;;;;;;;;;;;;5047266;28;19916;-67
2021/10/04 11:13:26;;;;;;;;;;;;;;;;;;5047012;28;19905;-68
2021/10/04 11:15:52;;;;;;;;;;;;;;;;;;5046344;28;20015;-69
2021/10/04 11:18:18;;;;;;;;;;;;;;;;;;5046429;28;19905;-65
2021/10/04 11:20:44;;;;;;;;;;;;;;;;;;5046400;28;19955;-69
2021/10/04 11:23:10;;;;;;;;;;;;;;;;;;5046799;28;19917;-72
2021/10/04 11:25:38;;;;;;;;;;;;;;;;;;5045856;28;19905;-65
2021/10/04 11:28:04;;;;;;;;;;;;;;;;;;5046591;28;19905;-66
2021/10/04 11:30:30;;;;;;;;;;;;;;;;;;5046603;28;20008;-64
2021/10/04 11:32:56;;;;;;;;;;;;;;;;;;5046296;28;19916;-65
2021/10/04 11:35:22;;;;;;;;;;;;;;;;;;5046412;28;19909;-68
2021/10/04 11:37:47;;;;;;;;;;;;;;;;;;5046132;28;19905;-69
2021/10/04 11:40:13;;;;;;;;;;;;;;;;;;5046092;28;19984;-66
2021/10/04 11:42:39;;;;;;;;;;;;;;;;;;5045881;28;19909;-66
2021/10/04 11:45:05;;;;;;;;;;;;;;;;;;5046268;28;19915;-65
2021/10/04 11:47:31;;;;;;;;;;;;;;;;;;5045728;28;19905;-65
2021/10/04 11:49:57;;;;;;;;;;;;;;;;;;5046230;28;19927;-66
2021/10/04 11:52:23;;;;;;;;;;;;;;;;;;5046316;28;19995;-64
2021/10/04 11:54:49;;;;;;;;;;;;;;;;;;5044159;28;19932;-65
2021/10/04 11:57:15;;;;;;;;;;;;;;;;;;5043397;28;19912;-70
2021/10/04 11:59:41;;;;;;;;;;;;;;;;;;5043217;28;19940;-67
2021/10/04 12:02:07;;;;;;;;;;;;;;;;;;5042832;28;19905;-65
2021/10/04 12:04:33;;;;;;;;;;;;;;;;;;5043355;28;19912;-70
2021/10/04 12:06:59;;;;;;;;;;;;;;;;;;5042816;28;19965;-65
2021/10/04 12:09:24;;;;;;;;;;;;;;;;;;5043345;28;19971;-75
2021/10/04 12:11:50;;;;;;;;;;;;;;;;;;5043060;28;19905;-72
2021/10/04 12:14:18;;;;;;;;;;;;;;;;;;5041958;28;20352;-70
2021/10/04 12:16:44;;;;;;;;;;;;;;;;;;5042456;28;19909;-70
2021/10/04 12:19:10;;;;;;;;;;;;;;;;;;5043956;28;19916;-70
2021/10/04 12:21:37;;;;;;;;;;;;;;;;;;5041059;28;19915;-70
2021/10/04 12:24:03;;;;;;;;;;;;;;;;;;5034686;28;19909;-75
2021/10/04 12:26:29;;;;;;;;;;;;;;;;;;5034170;28;19974;-77
2021/10/04 12:28:55;;;;;;;;;;;;;;;;;;5033916;28;19915;-75
2021/10/04 12:31:21;;;;;;;;;;;;;;;;;;5033658;28;20345;-77
2021/10/04 12:33:47;;;;;;;;;;;;;;;;;;5034199;28;20355;-77
2021/10/04 12:36:13;;;;;;;;;;;;;;;;;;5039651;28;19920;-63
2021/10/04 12:38:39;;;;;;;;;;;;;;;;;;5045437;28;19905;-73
2021/10/04 12:41:06;;;;;;;;;;;;;;;;;;5046593;28;19963;-67
2021/10/04 12:43:34;;;;;;;;;;;;;;;;;;5046750;28;19928;-64
2021/10/04 12:46:05;;;;;;;;;;;;;;;;;;5047618;28;19940;-72
2021/10/04 12:48:31;;;;;;;;;;;;;;;;;;5047414;28;19905;-73
2021/10/04 12:50:57;;;;;;;;;;;;;;;;;;5047010;28;19950;-66
2021/10/04 12:53:23;;;;;;;;;;;;;;;;;;5048463;28;19968;-69
2021/10/04 12:55:49;;;;;;;;;;;;;;;;;;5048026;28;19909;-70
2021/10/04 12:58:15;;;;;;;;;;;;;;;;;;5047489;28;19909;-69
2021/10/04 13:00:41;;;;;;;;;;;;;;;;;;5048390;28;19912;-66
2021/10/04 13:03:07;;;;;;;;;;;;;;;;;;5049195;28;19905;-66
2021/10/04 13:05:33;;;;;;;;;;;;;;;;;;5045941;28;19909;-66
2021/10/04 13:07:59;;;;;;;;;;;;;;;;;;5044796;28;19904;-72
2021/10/04 13:10:25;;;;;;;;;;;;;;;;;;5039824;28;19933;-65
2021/10/04 13:12:53;;;;;;;;;;;;;;;;;;5028777;28;19913;-66
2021/10/04 13:15:18;;;;;;;;;;;;;;;;;;5038686;28;20283;-66
2021/10/04 13:17:44;;;;;;;;;;;;;;;;;;5047684;28;19905;-67
2021/10/04 13:20:10;;;;;;;;;;;;;;;;;;5035631;28;19916;-71
2021/10/04 13:22:36;;;;;;;;;;;;;;;;;;5027947;28;19905;-66
2021/10/04 13:25:02;;;;;;;;;;;;;;;;;;5028115;28;19920;-68
2021/10/04 13:27:28;;;;;;;;;;;;;;;;;;5030107;28;19953;-66
2021/10/04 13:29:55;;;;;;;;;;;;;;;;;;5048219;28;19905;-66
2021/10/04 13:32:20;;;;;;;;;;;;;;;;;;5049009;28;19905;-67
2021/10/04 13:34:46;;;;;;;;;;;;;;;;;;5048385;28;20256;-66
2021/10/04 13:37:14;;;;;;;;;;;;;;;;;;5048809;28;19960;-71
2021/10/04 13:39:40;;;;;;;;;;;;;;;;;;5030800;28;20621;-79
2021/10/04 13:42:06;;;;;;;;;;;;;;;;;;5031434;28;19959;-81
2021/10/04 13:44:32;;;;;;;;;;;;;;;;;;5023840;28;20291;-79
2021/10/04 13:46:58;;;;;;;;;;;;;;;;;;5020850;28;20360;-79
2021/10/04 13:49:24;;;;;;;;;;;;;;;;;;5020051;28;19958;-79
2021/10/04 13:51:50;;;;;;;;;;;;;;;;;;5035313;28;19913;-78
2021/10/04 13:54:16;;;;;;;;;;;;;;;;;;5031496;28;20337;-79
2021/10/04 13:56:42;;;;;;;;;;;;;;;;;;5032643;28;19960;-79
2021/10/04 13:59:10;;;;;;;;;;;;;;;;;;5030013;28;20375;-78
2021/10/04 14:01:36;;;;;;;;;;;;;;;;;;5029287;28;19909;-65
2021/10/04 14:04:04;;;;;;;;;;;;;;;;;;5027205;28;19913;-65
2021/10/04 14:06:30;;;;;;;;;;;;;;;;;;5028410;28;19910;-74
2021/10/04 14:08:56;;;;;;;;;;;;;;;;;;5046654;28;19905;-69
2021/10/04 14:11:22;;;;;;;;;;;;;;;;;;5027099;28;19916;-72
2021/10/04 14:13:48;;;;;;;;;;;;;;;;;;5027949;28;19905;-76
2021/10/04 14:16:15;;;;;;;;;;;;;;;;;;5020182;28;19917;-65
2021/10/04 14:18:41;;;;;;;;;;;;;;;;;;5025147;28;19905;-65
2021/10/04 14:21:07;;;;;;;;;;;;;;;;;;5026713;28;20272;-64
2021/10/04 14:23:33;;;;;;;;;;;;;;;;;;5025954;28;19912;-65
2021/10/04 14:25:59;;;;;;;;;;;;;;;;;;5027406;28;19914;-64
2021/10/04 14:28:25;;;;;;;;;;;;;;;;;;5027273;28;19972;-69
2021/10/04 14:30:51;;;;;;;;;;;;;;;;;;5027337;28;20252;-65
2021/10/04 14:33:17;;;;;;;;;;;;;;;;;;5029483;28;19909;-66
2021/10/04 14:35:43;;;;;;;;;;;;;;;;;;5047210;28;19909;-65
2021/10/04 14:38:09;;;;;;;;;;;;;;;;;;5047146;28;19905;-65
2021/10/04 14:40:35;;;;;;;;;;;;;;;;;;5046903;28;19905;-64
2021/10/04 14:43:00;;;;;;;;;;;;;;;;;;5031368;28;19987;-72
2021/10/04 14:45:26;;;;;;;;;;;;;;;;;;5026805;28;20000;-68
2021/10/04 14:47:52;;;;;;;;;;;;;;;;;;5041081;28;19928;-67
2021/10/04 14:50:19;;;;;;;;;;;;;;;;;;5046342;28;19912;-65
2021/10/04 14:52:45;;;;;;;;;;;;;;;;;;5024171;28;19905;-69
2021/10/04 14:55:11;;;;;;;;;;;;;;;;;;5033624;28;19913;-64
2021/10/04 14:57:37;;;;;;;;;;;;;;;;;;5045964;28;20348;-66
2021/10/04 15:00:03;;;;;;;;;;;;;;;;;;5045904;28;19928;-70
2021/10/04 15:02:29;;;;;;;;;;;;;;;;;;5041433;28;19976;-66
2021/10/04 15:04:55;;;;;;;;;;;;;;;;;;5026700;28;20229;-65
2021/10/04 15:07:21;;;;;;;;;;;;;;;;;;5026861;28;19913;-72
2021/10/04 15:09:47;;;;;;;;;;;;;;;;;;5027346;28;19945;-69
2021/10/04 15:12:13;;;;;;;;;;;;;;;;;;5026649;28;19909;-67
2021/10/04 15:14:38;;;;;;;;;;;;;;;;;;5026453;28;20356;-69
2021/10/04 15:17:04;;;;;;;;;;;;;;;;;;5026690;28;19913;-66
2021/10/04 15:19:30;;;;;;;;;;;;;;;;;;5026667;28;20403;-65
2021/10/04 15:21:56;;;;;;;;;;;;;;;;;;5026409;28;19905;-67
2021/10/04 15:24:22;;;;;;;;;;;;;;;;;;5025411;28;19910;-65
2021/10/04 15:26:48;;;;;;;;;;;;;;;;;;5043285;28;19912;-67
2021/10/04 15:29:14;;;;;;;;;;;;;;;;;;5031556;28;19906;-70
2021/10/04 15:31:40;;;;;;;;;;;;;;;;;;5045592;28;19988;-71
2021/10/04 15:34:06;;;;;;;;;;;;;;;;;;5045758;28;19912;-68
2021/10/04 15:36:32;;;;;;;;;;;;;;;;;;5045531;28;19972;-65
2021/10/04 15:38:58;;;;;;;;;;;;;;;;;;5046062;28;19913;-65
2021/10/04 15:41:24;;;;;;;;;;;;;;;;;;5045642;28;19958;-64
2021/10/04 15:43:50;;;;;;;;;;;;;;;;;;5045521;28;19935;-66
2021/10/04 15:46:16;;;;;;;;;;;;;;;;;;5045882;28;19915;-63
2021/10/04 15:48:42;;;;;;;;;;;;;;;;;;5046341;28;19905;-64
2021/10/04 15:51:08;;;;;;;;;;;;;;;;;;5045206;28;20387;-65
2021/10/04 15:53:34;;;;;;;;;;;;;;;;;;5045833;28;19905;-64
2021/10/04 15:56:04;;;;;;;;;;;;;;;;;;5045581;28;19912;-65
2021/10/04 15:58:30;;;;;;;;;;;;;;;;;;5045646;28;19963;-64
2021/10/04 16:00:56;;;;;;;;;;;;;;;;;;5042154;28;19909;-65
2021/10/04 16:03:22;;;;;;;;;;;;;;;;;;5025864;28;20004;-64
2021/10/04 16:05:50;;;;;;;;;;;;;;;;;;5042085;28;19916;-67
2021/10/04 16:08:20;;;;;;;;;;;;;;;;;;5039934;28;19909;-64
2021/10/04 16:10:46;;;;;;;;;;;;;;;;;;5041591;28;19909;-64
2021/10/04 16:13:12;;;;;;;;;;;;;;;;;;5034126;28;19906;-67
2021/10/04 16:15:41;;;;;;;;;;;;;;;;;;5034566;28;19913;-68
2021/10/04 16:18:07;;;;;;;;;;;;;;;;;;5029066;28;19905;-63
2021/10/04 16:20:33;;;;;;;;;;;;;;;;;;5029357;28;19945;-64
2021/10/04 16:22:59;;;;;;;;;;;;;;;;;;5044067;28;19931;-65
2021/10/04 16:25:25;;;;;;;;;;;;;;;;;;5042006;28;19913;-64
2021/10/04 16:27:51;;;;;;;;;;;;;;;;;;5030052;28;19913;-65
2021/10/04 16:30:17;;;;;;;;;;;;;;;;;;5030388;28;19949;-65
2021/10/04 16:32:43;;;;;;;;;;;;;;;;;;5030477;28;19905;-65
2021/10/04 16:35:09;;;;;;;;;;;;;;;;;;5028760;28;19910;-70
2021/10/04 16:37:35;;;;;;;;;;;;;;;;;;5044296;28;19909;-67